sensor_id;sensor_type;location;lat;lon;timestamp;P1;durP1;ratioP1;P2;durP2;ratioP2
22240;SDS011;11289;52.524;13.694;2023-05-07T00:00:56;17.58;;;12.73;;
22240;SDS011;11289;52.524;13.694;2023-05-07T00:03:25;15.35;;;11.77;;
22240;SDS011;11289;52.524;13.694;2023-05-07T00:05:51;13.48;;;11.85;;
22240;SDS011;11289;52.524;13.694;2023-05-07T00:08:18;15.70;;;12.60;;
22240;SDS011;11289;52.524;13.694;2023-05-07T00:10:44;17.25;;;12.82;;
22240;SDS011;11289;52.524;13.694;2023-05-07T00:13:11;17.63;;;13.38;;
22240;SDS011;11289;52.524;13.694;2023-05-07T00:15:38;15.48;;;12.60;;
22240;SDS011;11289;52.524;13.694;2023-05-07T00:18:04;17.95;;;12.07;;
22240;SDS011;11289;52.524;13.694;2023-05-07T00:20:30;15.48;;;12.25;;
22240;SDS011;11289;52.524;13.694;2023-05-07T00:22:56;16.73;;;12.98;;
22240;SDS011;11289;52.524;13.694;2023-05-07T00:25:22;14.73;;;12.27;;
22240;SDS011;11289;52.524;13.694;2023-05-07T00:27:48;13.50;;;11.70;;
22240;SDS011;11289;52.524;13.694;2023-05-07T00:30:14;19.48;;;13.23;;
22240;SDS011;11289;52.524;13.694;2023-05-07T00:32:40;13.93;;;11.63;;
22240;SDS011;11289;52.524;13.694;2023-05-07T00:35:06;15.05;;;12.07;;
22240;SDS011;11289;52.524;13.694;2023-05-07T00:37:32;13.82;;;11.68;;
22240;SDS011;11289;52.524;13.694;2023-05-07T00:39:58;14.18;;;12.60;;
22240;SDS011;11289;52.524;13.694;2023-05-07T00:42:24;13.20;;;11.77;;
22240;SDS011;11289;52.524;13.694;2023-05-07T00:44:50;17.10;;;12.60;;
22240;SDS011;11289;52.524;13.694;2023-05-07T00:47:16;16.42;;;11.70;;
22240;SDS011;11289;52.524;13.694;2023-05-07T00:49:43;15.27;;;13.38;;
22240;SDS011;11289;52.524;13.694;2023-05-07T00:52:11;18.73;;;13.23;;
22240;SDS011;11289;52.524;13.694;2023-05-07T00:54:41;14.43;;;12.48;;
22240;SDS011;11289;52.524;13.694;2023-05-07T00:57:08;17.10;;;12.88;;
22240;SDS011;11289;52.524;13.694;2023-05-07T00:59:36;15.15;;;12.05;;
22240;SDS011;11289;52.524;13.694;2023-05-07T01:02:02;17.50;;;13.05;;
22240;SDS011;11289;52.524;13.694;2023-05-07T01:04:29;15.57;;;13.35;;
22240;SDS011;11289;52.524;13.694;2023-05-07T01:06:55;19.30;;;13.13;;
22240;SDS011;11289;52.524;13.694;2023-05-07T01:09:26;17.38;;;13.23;;
22240;SDS011;11289;52.524;13.694;2023-05-07T01:11:54;18.23;;;12.55;;
22240;SDS011;11289;52.524;13.694;2023-05-07T01:14:22;15.07;;;13.10;;
22240;SDS011;11289;52.524;13.694;2023-05-07T01:16:49;15.82;;;12.88;;
22240;SDS011;11289;52.524;13.694;2023-05-07T01:19:19;17.48;;;13.43;;
22240;SDS011;11289;52.524;13.694;2023-05-07T01:21:46;16.63;;;12.73;;
22240;SDS011;11289;52.524;13.694;2023-05-07T01:24:13;15.60;;;12.02;;
22240;SDS011;11289;52.524;13.694;2023-05-07T01:26:40;13.88;;;11.85;;
22240;SDS011;11289;52.524;13.694;2023-05-07T01:29:06;15.60;;;12.80;;
22240;SDS011;11289;52.524;13.694;2023-05-07T01:31:32;14.13;;;12.60;;
22240;SDS011;11289;52.524;13.694;2023-05-07T01:34:01;17.10;;;13.15;;
22240;SDS011;11289;52.524;13.694;2023-05-07T01:36:29;15.32;;;13.13;;
22240;SDS011;11289;52.524;13.694;2023-05-07T01:38:55;17.38;;;13.25;;
22240;SDS011;11289;52.524;13.694;2023-05-07T01:41:23;16.48;;;14.00;;
22240;SDS011;11289;52.524;13.694;2023-05-07T01:43:50;17.25;;;13.48;;
22240;SDS011;11289;52.524;13.694;2023-05-07T01:46:17;16.42;;;13.75;;
22240;SDS011;11289;52.524;13.694;2023-05-07T01:48:45;17.00;;;12.70;;
22240;SDS011;11289;52.524;13.694;2023-05-07T01:51:11;15.90;;;13.23;;
22240;SDS011;11289;52.524;13.694;2023-05-07T01:53:38;16.52;;;12.75;;
22240;SDS011;11289;52.524;13.694;2023-05-07T01:56:06;16.20;;;13.07;;
22240;SDS011;11289;52.524;13.694;2023-05-07T01:58:32;14.20;;;12.50;;
22240;SDS011;11289;52.524;13.694;2023-05-07T02:00:58;17.90;;;13.48;;
22240;SDS011;11289;52.524;13.694;2023-05-07T02:03:24;14.48;;;12.52;;
22240;SDS011;11289;52.524;13.694;2023-05-07T02:05:51;19.38;;;13.73;;
22240;SDS011;11289;52.524;13.694;2023-05-07T02:08:18;16.20;;;12.63;;
22240;SDS011;11289;52.524;13.694;2023-05-07T02:10:44;17.80;;;12.70;;
22240;SDS011;11289;52.524;13.694;2023-05-07T02:13:10;15.63;;;11.98;;
22240;SDS011;11289;52.524;13.694;2023-05-07T02:15:36;19.15;;;13.43;;
22240;SDS011;11289;52.524;13.694;2023-05-07T02:18:05;15.48;;;13.55;;
22240;SDS011;11289;52.524;13.694;2023-05-07T02:20:33;16.27;;;12.70;;
22240;SDS011;11289;52.524;13.694;2023-05-07T02:22:59;18.30;;;12.45;;
22240;SDS011;11289;52.524;13.694;2023-05-07T02:25:25;15.35;;;13.43;;
22240;SDS011;11289;52.524;13.694;2023-05-07T02:27:51;12.93;;;10.95;;
22240;SDS011;11289;52.524;13.694;2023-05-07T02:30:17;14.65;;;11.60;;
22240;SDS011;11289;52.524;13.694;2023-05-07T02:32:43;15.02;;;13.27;;
22240;SDS011;11289;52.524;13.694;2023-05-07T02:35:10;17.40;;;12.85;;
22240;SDS011;11289;52.524;13.694;2023-05-07T02:37:36;13.98;;;12.15;;
22240;SDS011;11289;52.524;13.694;2023-05-07T02:40:02;15.85;;;13.85;;
22240;SDS011;11289;52.524;13.694;2023-05-07T02:42:29;16.85;;;13.55;;
22240;SDS011;11289;52.524;13.694;2023-05-07T02:44:56;15.18;;;13.07;;
22240;SDS011;11289;52.524;13.694;2023-05-07T02:47:22;17.10;;;12.93;;
22240;SDS011;11289;52.524;13.694;2023-05-07T02:49:48;15.48;;;13.55;;
22240;SDS011;11289;52.524;13.694;2023-05-07T02:52:14;15.48;;;11.63;;
22240;SDS011;11289;52.524;13.694;2023-05-07T02:54:40;14.82;;;12.05;;
22240;SDS011;11289;52.524;13.694;2023-05-07T02:57:05;16.52;;;12.52;;
22240;SDS011;11289;52.524;13.694;2023-05-07T02:59:31;16.75;;;13.88;;
22240;SDS011;11289;52.524;13.694;2023-05-07T03:01:58;16.20;;;12.00;;
22240;SDS011;11289;52.524;13.694;2023-05-07T03:04:24;13.98;;;11.45;;
22240;SDS011;11289;52.524;13.694;2023-05-07T03:06:50;13.98;;;11.77;;
22240;SDS011;11289;52.524;13.694;2023-05-07T03:09:15;13.77;;;11.98;;
22240;SDS011;11289;52.524;13.694;2023-05-07T03:11:42;14.02;;;11.48;;
22240;SDS011;11289;52.524;13.694;2023-05-07T03:14:08;13.65;;;11.80;;
22240;SDS011;11289;52.524;13.694;2023-05-07T03:16:34;15.55;;;12.25;;
22240;SDS011;11289;52.524;13.694;2023-05-07T03:19:00;15.70;;;11.30;;
22240;SDS011;11289;52.524;13.694;2023-05-07T03:21:26;14.98;;;11.30;;
22240;SDS011;11289;52.524;13.694;2023-05-07T03:23:52;16.38;;;12.10;;
22240;SDS011;11289;52.524;13.694;2023-05-07T03:26:18;15.55;;;11.57;;
22240;SDS011;11289;52.524;13.694;2023-05-07T03:28:45;12.60;;;10.73;;
22240;SDS011;11289;52.524;13.694;2023-05-07T03:31:11;13.10;;;9.65;;
22240;SDS011;11289;52.524;13.694;2023-05-07T03:33:42;10.55;;;9.38;;
22240;SDS011;11289;52.524;13.694;2023-05-07T03:36:18;13.40;;;10.82;;
22240;SDS011;11289;52.524;13.694;2023-05-07T03:38:45;14.35;;;11.27;;
22240;SDS011;11289;52.524;13.694;2023-05-07T03:41:11;15.07;;;11.18;;
22240;SDS011;11289;52.524;13.694;2023-05-07T03:43:37;12.95;;;10.77;;
22240;SDS011;11289;52.524;13.694;2023-05-07T03:46:03;13.85;;;10.65;;
22240;SDS011;11289;52.524;13.694;2023-05-07T03:48:29;15.90;;;11.43;;
22240;SDS011;11289;52.524;13.694;2023-05-07T03:50:55;13.45;;;10.30;;
22240;SDS011;11289;52.524;13.694;2023-05-07T03:53:22;15.00;;;10.93;;
22240;SDS011;11289;52.524;13.694;2023-05-07T03:55:48;13.85;;;11.00;;
22240;SDS011;11289;52.524;13.694;2023-05-07T03:58:15;12.82;;;10.10;;
22240;SDS011;11289;52.524;13.694;2023-05-07T04:00:41;14.25;;;11.15;;
22240;SDS011;11289;52.524;13.694;2023-05-07T04:03:08;13.80;;;10.45;;
22240;SDS011;11289;52.524;13.694;2023-05-07T04:05:34;15.20;;;10.20;;
22240;SDS011;11289;52.524;13.694;2023-05-07T04:08:00;11.50;;;9.77;;
22240;SDS011;11289;52.524;13.694;2023-05-07T04:10:28;12.35;;;10.07;;
22240;SDS011;11289;52.524;13.694;2023-05-07T04:12:55;13.45;;;9.68;;
22240;SDS011;11289;52.524;13.694;2023-05-07T04:15:20;13.23;;;9.50;;
22240;SDS011;11289;52.524;13.694;2023-05-07T04:17:46;11.90;;;10.57;;
22240;SDS011;11289;52.524;13.694;2023-05-07T04:20:16;12.13;;;10.05;;
22240;SDS011;11289;52.524;13.694;2023-05-07T04:22:43;13.82;;;9.10;;
22240;SDS011;11289;52.524;13.694;2023-05-07T04:25:09;10.45;;;9.35;;
22240;SDS011;11289;52.524;13.694;2023-05-07T04:27:36;12.77;;;9.43;;
22240;SDS011;11289;52.524;13.694;2023-05-07T04:30:03;11.27;;;9.52;;
22240;SDS011;11289;52.524;13.694;2023-05-07T04:32:29;13.93;;;10.10;;
22240;SDS011;11289;52.524;13.694;2023-05-07T04:34:56;10.98;;;8.85;;
22240;SDS011;11289;52.524;13.694;2023-05-07T04:37:22;12.13;;;9.30;;
22240;SDS011;11289;52.524;13.694;2023-05-07T04:39:48;11.80;;;9.77;;
22240;SDS011;11289;52.524;13.694;2023-05-07T04:42:15;13.13;;;9.70;;
22240;SDS011;11289;52.524;13.694;2023-05-07T04:44:41;11.02;;;8.95;;
22240;SDS011;11289;52.524;13.694;2023-05-07T04:47:07;12.13;;;9.57;;
22240;SDS011;11289;52.524;13.694;2023-05-07T04:49:33;13.60;;;8.63;;
22240;SDS011;11289;52.524;13.694;2023-05-07T04:51:59;11.52;;;8.55;;
22240;SDS011;11289;52.524;13.694;2023-05-07T04:54:25;13.30;;;9.35;;
22240;SDS011;11289;52.524;13.694;2023-05-07T04:56:52;11.23;;;9.93;;
22240;SDS011;11289;52.524;13.694;2023-05-07T04:59:19;11.48;;;8.77;;
22240;SDS011;11289;52.524;13.694;2023-05-07T05:01:45;11.50;;;8.95;;
22240;SDS011;11289;52.524;13.694;2023-05-07T05:04:11;10.85;;;8.60;;
22240;SDS011;11289;52.524;13.694;2023-05-07T05:06:37;12.40;;;9.65;;
22240;SDS011;11289;52.524;13.694;2023-05-07T05:09:03;12.25;;;9.70;;
22240;SDS011;11289;52.524;13.694;2023-05-07T05:11:30;12.50;;;10.00;;
22240;SDS011;11289;52.524;13.694;2023-05-07T05:13:58;15.95;;;10.80;;
22240;SDS011;11289;52.524;13.694;2023-05-07T05:16:26;13.38;;;9.50;;
22240;SDS011;11289;52.524;13.694;2023-05-07T05:18:52;15.15;;;9.85;;
22240;SDS011;11289;52.524;13.694;2023-05-07T05:21:19;12.63;;;8.57;;
22240;SDS011;11289;52.524;13.694;2023-05-07T05:23:46;14.25;;;9.73;;
22240;SDS011;11289;52.524;13.694;2023-05-07T05:26:12;11.60;;;9.85;;
22240;SDS011;11289;52.524;13.694;2023-05-07T05:28:38;12.02;;;10.20;;
22240;SDS011;11289;52.524;13.694;2023-05-07T05:31:05;11.30;;;9.10;;
22240;SDS011;11289;52.524;13.694;2023-05-07T05:33:31;14.00;;;9.63;;
22240;SDS011;11289;52.524;13.694;2023-05-07T05:35:57;12.68;;;9.82;;
22240;SDS011;11289;52.524;13.694;2023-05-07T05:38:23;13.23;;;10.02;;
22240;SDS011;11289;52.524;13.694;2023-05-07T05:40:49;10.98;;;9.52;;
22240;SDS011;11289;52.524;13.694;2023-05-07T05:43:15;11.90;;;9.02;;
22240;SDS011;11289;52.524;13.694;2023-05-07T05:45:40;11.75;;;9.65;;
22240;SDS011;11289;52.524;13.694;2023-05-07T05:48:06;12.25;;;9.40;;
22240;SDS011;11289;52.524;13.694;2023-05-07T05:50:34;12.23;;;8.57;;
22240;SDS011;11289;52.524;13.694;2023-05-07T05:53:02;15.85;;;9.45;;
22240;SDS011;11289;52.524;13.694;2023-05-07T05:55:28;12.60;;;9.68;;
22240;SDS011;11289;52.524;13.694;2023-05-07T05:57:54;15.80;;;9.77;;
22240;SDS011;11289;52.524;13.694;2023-05-07T06:00:20;11.90;;;9.48;;
22240;SDS011;11289;52.524;13.694;2023-05-07T06:02:48;12.07;;;9.15;;
22240;SDS011;11289;52.524;13.694;2023-05-07T06:05:14;10.73;;;8.90;;
22240;SDS011;11289;52.524;13.694;2023-05-07T06:07:40;10.27;;;8.73;;
22240;SDS011;11289;52.524;13.694;2023-05-07T06:10:06;13.90;;;7.75;;
22240;SDS011;11289;52.524;13.694;2023-05-07T06:12:32;12.70;;;8.82;;
22240;SDS011;11289;52.524;13.694;2023-05-07T06:14:58;9.68;;;8.68;;
22240;SDS011;11289;52.524;13.694;2023-05-07T06:17:24;11.43;;;8.40;;
22240;SDS011;11289;52.524;13.694;2023-05-07T06:19:50;13.07;;;9.02;;
22240;SDS011;11289;52.524;13.694;2023-05-07T06:22:17;9.68;;;7.75;;
22240;SDS011;11289;52.524;13.694;2023-05-07T06:24:43;11.30;;;7.97;;
22240;SDS011;11289;52.524;13.694;2023-05-07T06:27:09;8.73;;;7.20;;
22240;SDS011;11289;52.524;13.694;2023-05-07T06:29:35;8.48;;;6.97;;
22240;SDS011;11289;52.524;13.694;2023-05-07T06:32:12;9.90;;;7.20;;
22240;SDS011;11289;52.524;13.694;2023-05-07T06:34:39;10.85;;;7.50;;
22240;SDS011;11289;52.524;13.694;2023-05-07T06:37:06;10.90;;;7.38;;
22240;SDS011;11289;52.524;13.694;2023-05-07T06:39:32;10.07;;;7.43;;
22240;SDS011;11289;52.524;13.694;2023-05-07T06:41:59;9.63;;;7.25;;
22240;SDS011;11289;52.524;13.694;2023-05-07T06:44:26;9.52;;;6.47;;
22240;SDS011;11289;52.524;13.694;2023-05-07T06:46:52;10.25;;;6.63;;
22240;SDS011;11289;52.524;13.694;2023-05-07T06:49:18;8.65;;;6.93;;
22240;SDS011;11289;52.524;13.694;2023-05-07T06:51:44;8.65;;;6.28;;
22240;SDS011;11289;52.524;13.694;2023-05-07T06:54:10;9.55;;;6.50;;
22240;SDS011;11289;52.524;13.694;2023-05-07T06:56:36;9.27;;;6.72;;
22240;SDS011;11289;52.524;13.694;2023-05-07T06:59:02;9.30;;;6.78;;
22240;SDS011;11289;52.524;13.694;2023-05-07T07:01:29;11.45;;;6.65;;
22240;SDS011;11289;52.524;13.694;2023-05-07T07:03:55;9.55;;;6.47;;
22240;SDS011;11289;52.524;13.694;2023-05-07T07:06:21;8.20;;;5.80;;
22240;SDS011;11289;52.524;13.694;2023-05-07T07:08:47;9.95;;;6.10;;
22240;SDS011;11289;52.524;13.694;2023-05-07T07:11:13;6.45;;;5.75;;
22240;SDS011;11289;52.524;13.694;2023-05-07T07:13:39;6.82;;;5.20;;
22240;SDS011;11289;52.524;13.694;2023-05-07T07:16:05;7.28;;;5.53;;
22240;SDS011;11289;52.524;13.694;2023-05-07T07:18:32;9.82;;;5.80;;
22240;SDS011;11289;52.524;13.694;2023-05-07T07:20:58;9.20;;;5.55;;
22240;SDS011;11289;52.524;13.694;2023-05-07T07:23:25;8.43;;;5.65;;
22240;SDS011;11289;52.524;13.694;2023-05-07T07:25:51;9.75;;;6.00;;
22240;SDS011;11289;52.524;13.694;2023-05-07T07:28:17;7.25;;;5.40;;
22240;SDS011;11289;52.524;13.694;2023-05-07T07:30:43;5.80;;;4.68;;
22240;SDS011;11289;52.524;13.694;2023-05-07T07:33:10;6.30;;;5.05;;
22240;SDS011;11289;52.524;13.694;2023-05-07T07:35:38;6.47;;;4.63;;
22240;SDS011;11289;52.524;13.694;2023-05-07T07:38:04;6.20;;;4.43;;
22240;SDS011;11289;52.524;13.694;2023-05-07T07:40:30;7.03;;;4.80;;
22240;SDS011;11289;52.524;13.694;2023-05-07T07:42:56;5.22;;;4.57;;
22240;SDS011;11289;52.524;13.694;2023-05-07T07:45:22;5.70;;;4.47;;
22240;SDS011;11289;52.524;13.694;2023-05-07T07:47:48;9.27;;;4.85;;
22240;SDS011;11289;52.524;13.694;2023-05-07T07:50:14;4.72;;;4.30;;
22240;SDS011;11289;52.524;13.694;2023-05-07T07:52:40;5.88;;;4.22;;
22240;SDS011;11289;52.524;13.694;2023-05-07T07:55:06;6.90;;;4.90;;
22240;SDS011;11289;52.524;13.694;2023-05-07T07:57:33;5.25;;;3.88;;
22240;SDS011;11289;52.524;13.694;2023-05-07T07:59:59;4.63;;;3.72;;
22240;SDS011;11289;52.524;13.694;2023-05-07T08:02:25;5.90;;;4.18;;
22240;SDS011;11289;52.524;13.694;2023-05-07T08:04:51;11.27;;;4.75;;
22240;SDS011;11289;52.524;13.694;2023-05-07T08:07:17;5.22;;;3.50;;
22240;SDS011;11289;52.524;13.694;2023-05-07T08:09:46;4.50;;;3.05;;
22240;SDS011;11289;52.524;13.694;2023-05-07T08:12:12;5.07;;;3.50;;
22240;SDS011;11289;52.524;13.694;2023-05-07T08:14:39;4.38;;;3.97;;
22240;SDS011;11289;52.524;13.694;2023-05-07T08:17:06;6.47;;;4.47;;
22240;SDS011;11289;52.524;13.694;2023-05-07T08:19:33;5.90;;;3.50;;
22240;SDS011;11289;52.524;13.694;2023-05-07T08:21:59;4.93;;;3.35;;
22240;SDS011;11289;52.524;13.694;2023-05-07T08:24:25;5.22;;;3.35;;
22240;SDS011;11289;52.524;13.694;2023-05-07T08:26:53;4.40;;;3.28;;
22240;SDS011;11289;52.524;13.694;2023-05-07T08:29:19;4.32;;;3.13;;
22240;SDS011;11289;52.524;13.694;2023-05-07T08:31:45;4.18;;;3.15;;
22240;SDS011;11289;52.524;13.694;2023-05-07T08:34:11;3.42;;;2.85;;
22240;SDS011;11289;52.524;13.694;2023-05-07T08:36:38;5.60;;;3.63;;
22240;SDS011;11289;52.524;13.694;2023-05-07T08:39:07;4.13;;;3.22;;
22240;SDS011;11289;52.524;13.694;2023-05-07T08:41:33;5.13;;;3.40;;
22240;SDS011;11289;52.524;13.694;2023-05-07T08:44:00;4.50;;;3.25;;
22240;SDS011;11289;52.524;13.694;2023-05-07T08:46:30;6.63;;;3.45;;
22240;SDS011;11289;52.524;13.694;2023-05-07T08:48:57;3.88;;;2.92;;
22240;SDS011;11289;52.524;13.694;2023-05-07T08:51:23;4.25;;;3.30;;
22240;SDS011;11289;52.524;13.694;2023-05-07T08:53:49;6.55;;;3.05;;
22240;SDS011;11289;52.524;13.694;2023-05-07T08:56:16;4.53;;;3.35;;
22240;SDS011;11289;52.524;13.694;2023-05-07T08:58:43;4.47;;;3.05;;
22240;SDS011;11289;52.524;13.694;2023-05-07T09:01:10;3.30;;;2.47;;
22240;SDS011;11289;52.524;13.694;2023-05-07T09:03:39;4.57;;;3.10;;
22240;SDS011;11289;52.524;13.694;2023-05-07T09:06:05;4.10;;;2.63;;
22240;SDS011;11289;52.524;13.694;2023-05-07T09:08:32;6.13;;;2.85;;
22240;SDS011;11289;52.524;13.694;2023-05-07T09:10:59;4.78;;;2.70;;
22240;SDS011;11289;52.524;13.694;2023-05-07T09:13:26;3.63;;;2.67;;
22240;SDS011;11289;52.524;13.694;2023-05-07T09:15:53;3.92;;;3.42;;
22240;SDS011;11289;52.524;13.694;2023-05-07T09:18:20;5.28;;;3.08;;
22240;SDS011;11289;52.524;13.694;2023-05-07T09:20:46;3.83;;;2.50;;
22240;SDS011;11289;52.524;13.694;2023-05-07T09:23:12;4.60;;;2.28;;
22240;SDS011;11289;52.524;13.694;2023-05-07T09:25:38;10.98;;;3.63;;
22240;SDS011;11289;52.524;13.694;2023-05-07T09:28:04;5.18;;;2.95;;
22240;SDS011;11289;52.524;13.694;2023-05-07T09:30:33;4.43;;;2.15;;
22240;SDS011;11289;52.524;13.694;2023-05-07T09:33:00;3.63;;;2.35;;
22240;SDS011;11289;52.524;13.694;2023-05-07T09:35:27;2.58;;;2.08;;
22240;SDS011;11289;52.524;13.694;2023-05-07T09:37:55;3.35;;;2.75;;
22240;SDS011;11289;52.524;13.694;2023-05-07T09:40:26;4.28;;;2.03;;
22240;SDS011;11289;52.524;13.694;2023-05-07T09:42:54;6.18;;;1.98;;
22240;SDS011;11289;52.524;13.694;2023-05-07T09:45:21;2.28;;;1.63;;
22240;SDS011;11289;52.524;13.694;2023-05-07T09:47:53;5.00;;;1.70;;
22240;SDS011;11289;52.524;13.694;2023-05-07T09:50:25;2.75;;;1.67;;
22240;SDS011;11289;52.524;13.694;2023-05-07T09:52:57;2.45;;;2.00;;
22240;SDS011;11289;52.524;13.694;2023-05-07T09:55:23;4.10;;;2.05;;
22240;SDS011;11289;52.524;13.694;2023-05-07T09:57:50;4.05;;;1.85;;
22240;SDS011;11289;52.524;13.694;2023-05-07T10:00:21;3.75;;;1.70;;
22240;SDS011;11289;52.524;13.694;2023-05-07T10:02:49;5.07;;;1.75;;
22240;SDS011;11289;52.524;13.694;2023-05-07T10:05:17;2.35;;;1.90;;
22240;SDS011;11289;52.524;13.694;2023-05-07T10:07:46;3.38;;;1.92;;
22240;SDS011;11289;52.524;13.694;2023-05-07T10:10:12;4.20;;;2.05;;
22240;SDS011;11289;52.524;13.694;2023-05-07T10:12:38;3.95;;;2.55;;
22240;SDS011;11289;52.524;13.694;2023-05-07T10:15:06;3.22;;;2.88;;
22240;SDS011;11289;52.524;13.694;2023-05-07T10:17:34;3.65;;;2.20;;
22240;SDS011;11289;52.524;13.694;2023-05-07T10:20:02;3.90;;;2.90;;
22240;SDS011;11289;52.524;13.694;2023-05-07T10:22:37;2.63;;;1.90;;
22240;SDS011;11289;52.524;13.694;2023-05-07T10:25:09;3.53;;;2.70;;
22240;SDS011;11289;52.524;13.694;2023-05-07T10:27:53;5.60;;;2.17;;
22240;SDS011;11289;52.524;13.694;2023-05-07T10:33:13;2.80;;;1.90;;
22240;SDS011;11289;52.524;13.694;2023-05-07T10:35:42;5.90;;;2.10;;
22240;SDS011;11289;52.524;13.694;2023-05-07T10:38:10;2.50;;;1.55;;
22240;SDS011;11289;52.524;13.694;2023-05-07T10:40:36;4.18;;;1.85;;
22240;SDS011;11289;52.524;13.694;2023-05-07T10:43:03;3.15;;;1.50;;
22240;SDS011;11289;52.524;13.694;2023-05-07T10:45:34;4.00;;;1.90;;
22240;SDS011;11289;52.524;13.694;2023-05-07T10:48:16;5.05;;;2.45;;
22240;SDS011;11289;52.524;13.694;2023-05-07T10:50:43;2.40;;;1.98;;
22240;SDS011;11289;52.524;13.694;2023-05-07T10:55:50;4.15;;;2.25;;
22240;SDS011;11289;52.524;13.694;2023-05-07T11:00:47;2.00;;;1.65;;
22240;SDS011;11289;52.524;13.694;2023-05-07T11:03:14;2.67;;;2.00;;
22240;SDS011;11289;52.524;13.694;2023-05-07T11:06:08;3.78;;;1.88;;
22240;SDS011;11289;52.524;13.694;2023-05-07T11:08:52;3.72;;;1.77;;
22240;SDS011;11289;52.524;13.694;2023-05-07T11:11:18;3.53;;;1.88;;
22240;SDS011;11289;52.524;13.694;2023-05-07T11:13:48;2.95;;;1.50;;
22240;SDS011;11289;52.524;13.694;2023-05-07T11:18:48;3.45;;;1.90;;
22240;SDS011;11289;52.524;13.694;2023-05-07T11:23:58;1.80;;;1.27;;
22240;SDS011;11289;52.524;13.694;2023-05-07T11:26:25;2.13;;;1.77;;
22240;SDS011;11289;52.524;13.694;2023-05-07T11:28:51;1.83;;;1.40;;
22240;SDS011;11289;52.524;13.694;2023-05-07T11:31:23;2.17;;;1.55;;
22240;SDS011;11289;52.524;13.694;2023-05-07T11:33:51;2.28;;;1.70;;
22240;SDS011;11289;52.524;13.694;2023-05-07T11:36:23;2.95;;;1.77;;
22240;SDS011;11289;52.524;13.694;2023-05-07T11:38:49;1.80;;;1.30;;
22240;SDS011;11289;52.524;13.694;2023-05-07T11:41:16;2.20;;;1.58;;
22240;SDS011;11289;52.524;13.694;2023-05-07T11:43:56;2.80;;;2.00;;
22240;SDS011;11289;52.524;13.694;2023-05-07T11:46:24;1.60;;;1.50;;
22240;SDS011;11289;52.524;13.694;2023-05-07T11:48:50;4.45;;;1.70;;
22240;SDS011;11289;52.524;13.694;2023-05-07T11:51:20;2.53;;;1.42;;
22240;SDS011;11289;52.524;13.694;2023-05-07T11:53:48;4.25;;;1.40;;
22240;SDS011;11289;52.524;13.694;2023-05-07T11:56:16;3.20;;;0.95;;
22240;SDS011;11289;52.524;13.694;2023-05-07T11:58:44;2.65;;;1.58;;
22240;SDS011;11289;52.524;13.694;2023-05-07T12:01:12;2.83;;;1.55;;
22240;SDS011;11289;52.524;13.694;2023-05-07T12:03:42;3.58;;;1.52;;
22240;SDS011;11289;52.524;13.694;2023-05-07T12:06:11;2.67;;;1.60;;
22240;SDS011;11289;52.524;13.694;2023-05-07T12:08:39;2.03;;;1.33;;
22240;SDS011;11289;52.524;13.694;2023-05-07T12:11:07;1.88;;;1.45;;
22240;SDS011;11289;52.524;13.694;2023-05-07T12:13:36;2.75;;;1.20;;
22240;SDS011;11289;52.524;13.694;2023-05-07T12:16:03;3.92;;;1.58;;
22240;SDS011;11289;52.524;13.694;2023-05-07T12:18:31;2.38;;;1.30;;
22240;SDS011;11289;52.524;13.694;2023-05-07T12:20:57;3.33;;;1.13;;
22240;SDS011;11289;52.524;13.694;2023-05-07T12:23:24;1.65;;;1.15;;
22240;SDS011;11289;52.524;13.694;2023-05-07T12:25:50;2.40;;;1.40;;
22240;SDS011;11289;52.524;13.694;2023-05-07T12:28:17;1.90;;;1.30;;
22240;SDS011;11289;52.524;13.694;2023-05-07T12:30:44;2.78;;;1.50;;
22240;SDS011;11289;52.524;13.694;2023-05-07T12:33:11;1.60;;;1.30;;
22240;SDS011;11289;52.524;13.694;2023-05-07T12:35:39;2.25;;;1.40;;
22240;SDS011;11289;52.524;13.694;2023-05-07T12:38:10;3.78;;;1.40;;
22240;SDS011;11289;52.524;13.694;2023-05-07T12:40:41;2.67;;;1.60;;
22240;SDS011;11289;52.524;13.694;2023-05-07T12:43:15;1.75;;;1.30;;
22240;SDS011;11289;52.524;13.694;2023-05-07T12:45:43;2.83;;;1.50;;
22240;SDS011;11289;52.524;13.694;2023-05-07T12:48:10;1.85;;;1.38;;
22240;SDS011;11289;52.524;13.694;2023-05-07T12:50:36;3.95;;;1.27;;
22240;SDS011;11289;52.524;13.694;2023-05-07T12:53:04;3.08;;;1.30;;
22240;SDS011;11289;52.524;13.694;2023-05-07T12:55:44;1.55;;;1.20;;
22240;SDS011;11289;52.524;13.694;2023-05-07T12:58:19;1.70;;;1.30;;
22240;SDS011;11289;52.524;13.694;2023-05-07T13:00:55;2.63;;;1.05;;
22240;SDS011;11289;52.524;13.694;2023-05-07T13:03:33;2.70;;;1.23;;
22240;SDS011;11289;52.524;13.694;2023-05-07T13:06:01;2.42;;;1.30;;
22240;SDS011;11289;52.524;13.694;2023-05-07T13:08:39;1.67;;;1.38;;
22240;SDS011;11289;52.524;13.694;2023-05-07T13:11:10;2.85;;;1.40;;
22240;SDS011;11289;52.524;13.694;2023-05-07T13:13:38;1.98;;;1.38;;
22240;SDS011;11289;52.524;13.694;2023-05-07T13:16:06;3.25;;;1.70;;
22240;SDS011;11289;52.524;13.694;2023-05-07T13:18:33;2.95;;;1.45;;
22240;SDS011;11289;52.524;13.694;2023-05-07T13:21:00;2.67;;;1.58;;
22240;SDS011;11289;52.524;13.694;2023-05-07T13:23:26;2.35;;;1.30;;
22240;SDS011;11289;52.524;13.694;2023-05-07T13:25:53;2.00;;;1.55;;
22240;SDS011;11289;52.524;13.694;2023-05-07T13:28:19;2.72;;;1.58;;
22240;SDS011;11289;52.524;13.694;2023-05-07T13:30:46;7.53;;;2.00;;
22240;SDS011;11289;52.524;13.694;2023-05-07T13:33:12;3.78;;;1.50;;
22240;SDS011;11289;52.524;13.694;2023-05-07T13:35:38;2.33;;;1.70;;
22240;SDS011;11289;52.524;13.694;2023-05-07T13:38:05;1.58;;;1.35;;
22240;SDS011;11289;52.524;13.694;2023-05-07T13:40:31;4.20;;;1.85;;
22240;SDS011;11289;52.524;13.694;2023-05-07T13:42:57;3.15;;;1.67;;
22240;SDS011;11289;52.524;13.694;2023-05-07T13:45:25;4.72;;;1.60;;
22240;SDS011;11289;52.524;13.694;2023-05-07T13:47:55;2.13;;;1.55;;
22240;SDS011;11289;52.524;13.694;2023-05-07T13:50:22;1.80;;;1.20;;
22240;SDS011;11289;52.524;13.694;2023-05-07T13:52:48;2.75;;;1.90;;
22240;SDS011;11289;52.524;13.694;2023-05-07T13:55:17;4.53;;;1.63;;
22240;SDS011;11289;52.524;13.694;2023-05-07T13:57:43;4.70;;;1.73;;
22240;SDS011;11289;52.524;13.694;2023-05-07T14:00:20;2.22;;;1.48;;
22240;SDS011;11289;52.524;13.694;2023-05-07T14:02:46;3.30;;;1.60;;
22240;SDS011;11289;52.524;13.694;2023-05-07T14:05:12;2.00;;;1.40;;
22240;SDS011;11289;52.524;13.694;2023-05-07T14:07:38;2.78;;;1.33;;
22240;SDS011;11289;52.524;13.694;2023-05-07T14:10:05;4.00;;;1.67;;
22240;SDS011;11289;52.524;13.694;2023-05-07T14:12:32;3.83;;;1.30;;
22240;SDS011;11289;52.524;13.694;2023-05-07T14:14:58;2.97;;;1.30;;
22240;SDS011;11289;52.524;13.694;2023-05-07T14:17:25;1.88;;;1.17;;
22240;SDS011;11289;52.524;13.694;2023-05-07T14:19:52;2.17;;;1.25;;
22240;SDS011;11289;52.524;13.694;2023-05-07T14:22:23;2.20;;;1.17;;
22240;SDS011;11289;52.524;13.694;2023-05-07T14:24:49;2.97;;;1.45;;
22240;SDS011;11289;52.524;13.694;2023-05-07T14:27:15;4.22;;;1.30;;
22240;SDS011;11289;52.524;13.694;2023-05-07T14:29:42;3.15;;;1.20;;
22240;SDS011;11289;52.524;13.694;2023-05-07T14:32:08;2.88;;;1.20;;
22240;SDS011;11289;52.524;13.694;2023-05-07T14:34:34;3.13;;;1.30;;
22240;SDS011;11289;52.524;13.694;2023-05-07T14:37:00;1.98;;;1.30;;